Terminal Aerodrome Forecast
Issued by NWS

Home | Current Version | Previous Version | Text Only | Print | Product List | Glossary On
Versions: 1 2 3 4 5 6 7 8 9 10 11 12 13 14
000
FTUS46 KSEW 201720
TAFBLI
TAF
KBLI 201720Z 2018/2118 18006KT P6SM BKN100 BKN200
     FM210000 20008KT P6SM -RA BKN050 OVC100
     FM210900 18015G25KT P6SM -RA BKN025 OVC050
     FM211200 18012G22KT P6SM -SHRA BKN020 BKN040
     FM211600 23012KT P6SM VCSH SCT030 BKN050=

USA.gov is the U.S. government's official web portal to all federal, state and local government web resources and services.